Time;durP1;ratioP1;P1;durP2;ratioP2;P2;SDS_P1;SDS_P2;PMS_P1;PMS_P2;Temp;Humidity;BMP_temperature;BMP_pressure;BME280_temperature;BME280_humidity;BME280_pressure;Samples;Min_cycle;Max_cycle;Signal;HPM_P1;HPM_P2
2023/05/05 00:01:58;;;;;;;10.60;7.90;;;;;;;-148.88;93.24;75927.53;5015656;28;20469;-74
2023/05/05 00:04:23;;;;;;;9.90;6.97;;;;;;;-148.88;93.28;75919.41;5015313;28;20022;-74
2023/05/05 00:06:49;;;;;;;10.65;8.07;;;;;;;-148.88;93.99;75917.38;5015214;28;20060;-74
2023/05/05 00:09:15;;;;;;;10.93;7.55;;;;;;;-148.88;94.34;75927.53;5015262;28;20025;-74
2023/05/05 00:11:40;;;;;;;11.10;7.47;;;;;;;-148.88;93.66;75919.41;5015248;28;20445;-74
2023/05/05 00:14:05;;;;;;;9.88;7.15;;;;;;;-148.88;93.98;75921.44;5015174;28;20022;-74
2023/05/05 00:16:30;;;;;;;11.77;8.10;;;;;;;-148.88;94.19;75931.59;5015312;28;20362;-75
2023/05/05 00:18:56;;;;;;;10.30;7.70;;;;;;;-148.88;93.97;75929.56;5014981;28;20025;-74
2023/05/05 00:21:22;;;;;;;9.45;7.18;;;;;;;-148.88;94.44;75937.69;4997591;28;20083;-75
2023/05/05 00:23:47;;;;;;;10.85;7.70;;;;;;;-148.88;94.42;75947.84;5015219;28;20032;-74
2023/05/05 00:26:13;;;;;;;10.88;7.43;;;;;;;-148.88;93.97;75935.66;5015004;28;20037;-75
2023/05/05 00:28:38;;;;;;;16.65;7.80;;;;;;;-148.88;94.95;75939.72;5015248;28;20037;-74
2023/05/05 00:31:03;;;;;;;10.35;7.65;;;;;;;-148.88;94.53;75931.59;5015700;28;20101;-74
2023/05/05 00:33:28;;;;;;;10.65;7.57;;;;;;;-148.88;94.72;75935.66;5014872;28;20473;-74
2023/05/05 00:35:54;;;;;;;10.05;7.90;;;;;;;-148.88;94.65;75933.63;5014625;28;20377;-74
2023/05/05 00:38:19;;;;;;;9.27;7.55;;;;;;;-148.88;94.43;75937.69;5014763;28;20041;-75
2023/05/05 00:40:44;;;;;;;10.25;7.50;;;;;;;-148.88;94.29;75947.84;5014709;28;20034;-74
2023/05/05 00:43:11;;;;;;;10.57;7.97;;;;;;;-148.88;95.25;75945.81;5014669;28;20033;-75
2023/05/05 00:45:41;;;;;;;12.77;7.63;;;;;;;-148.88;95.35;75945.81;5014565;28;20018;-75
2023/05/05 00:48:07;;;;;;;12.02;7.93;;;;;;;-148.88;95.85;75947.84;4996969;28;20021;-74
2023/05/05 00:50:33;;;;;;;11.52;7.80;;;;;;;-148.88;95.52;75949.88;5014622;28;20105;-75
2023/05/05 00:53:04;;;;;;;10.20;7.90;;;;;;;-148.88;96.11;75955.97;5014735;28;20065;-74
2023/05/05 00:55:30;;;;;;;12.75;8.07;;;;;;;-148.88;96.08;75955.97;4996772;28;20108;-74
2023/05/05 00:57:58;;;;;;;12.07;8.23;;;;;;;-148.88;96.13;75958.00;5014396;28;20030;-75
2023/05/05 01:00:23;;;;;;;12.63;8.38;;;;;;;-148.88;95.74;75947.84;5014510;28;20021;-74
2023/05/05 01:02:50;;;;;;;11.57;8.00;;;;;;;-148.88;96.08;75960.03;5014393;28;20024;-75
2023/05/05 01:05:16;;;;;;;13.35;7.97;;;;;;;-148.88;95.73;75955.97;5014397;28;20420;-74
2023/05/05 01:07:42;;;;;;;12.73;7.85;;;;;;;-148.88;96.13;75960.03;5014263;28;20062;-74
2023/05/05 01:10:34;;;;;;;12.48;7.43;;;;;;;-148.88;95.95;75955.97;5013961;28;20084;-74
2023/05/05 01:13:13;;;;;;;9.68;7.70;;;;;;;-148.88;95.79;75947.84;5014074;28;20395;-74
2023/05/05 01:15:49;;;;;;;11.95;8.13;;;;;;;-148.88;96.25;75960.03;5013965;28;20022;-75
2023/05/05 01:18:52;;;;;;;9.73;7.82;;;;;;;-148.88;96.16;75955.97;5013828;28;20396;-75
2023/05/05 01:21:43;;;;;;;11.35;7.75;;;;;;;-148.88;96.32;75974.25;4975278;28;20034;-74
2023/05/05 01:24:37;;;;;;;8.82;7.85;;;;;;;-148.88;96.86;75972.22;4996311;28;20037;-74
2023/05/05 01:27:26;;;;;;;12.90;8.13;;;;;;;-148.88;96.98;75960.03;5013827;28;20029;-75
2023/05/05 01:30:33;;;;;;;9.88;7.78;;;;;;;-148.88;96.79;75955.97;5014199;28;20025;-74
2023/05/05 01:33:10;;;;;;;12.27;8.27;;;;;;;-148.88;97.05;75964.09;5014142;28;20026;-74
2023/05/05 01:35:41;;;;;;;12.63;8.30;;;;;;;-148.88;97.15;75951.91;5013641;28;20476;-75
2023/05/05 01:38:36;;;;;;;12.25;7.47;;;;;;;-148.88;96.62;75960.03;4996096;28;20030;-74
2023/05/05 01:41:18;;;;;;;12.88;8.13;;;;;;;-148.88;96.98;75951.91;5008485;28;20041;-74
2023/05/05 01:43:46;;;;;;;10.27;7.78;;;;;;;-148.88;96.84;75962.06;4996041;28;20022;-74
2023/05/05 01:46:13;;;;;;;9.48;7.82;;;;;;;-148.88;96.66;75955.97;4995910;28;20377;-74
2023/05/05 01:48:40;;;;;;;12.25;7.70;;;;;;;-148.88;96.58;75937.69;5013527;28;20485;-74
2023/05/05 01:51:07;;;;;;;10.98;7.88;;;;;;;-148.88;96.30;75958.00;5013455;28;20030;-75
2023/05/05 01:53:34;;;;;;;11.00;7.60;;;;;;;-148.88;97.49;75962.06;5013478;28;20026;-75
2023/05/05 01:56:01;;;;;;;11.52;7.95;;;;;;;-148.88;96.96;75958.00;5013309;28;20072;-75
2023/05/05 01:58:28;;;;;;;12.00;8.05;;;;;;;-148.88;96.83;75964.09;5013708;28;20030;-75
2023/05/05 02:00:56;;;;;;;10.13;7.50;;;;;;;-148.88;96.25;75962.06;5013396;28;20080;-76
2023/05/05 02:03:22;;;;;;;14.55;8.60;;;;;;;-148.88;96.35;75960.03;4995704;28;20033;-75
2023/05/05 02:05:50;;;;;;;7.93;7.13;;;;;;;-148.88;96.30;75960.03;4995644;28;20014;-75
2023/05/05 02:08:16;;;;;;;12.15;7.80;;;;;;;-148.88;96.19;75960.03;4995658;28;20029;-75
2023/05/05 02:10:43;;;;;;;10.82;7.75;;;;;;;-148.88;96.45;75972.22;4995663;28;20025;-75
2023/05/05 02:13:11;;;;;;;11.27;7.68;;;;;;;-148.88;96.50;75976.28;5013357;28;20022;-75
2023/05/05 02:15:37;;;;;;;12.02;8.75;;;;;;;-148.88;96.40;75984.41;5013108;28;20033;-75
2023/05/05 02:18:05;;;;;;;13.07;8.07;;;;;;;-148.88;96.47;75982.38;4995864;28;20037;-75
2023/05/05 02:20:31;;;;;;;11.70;7.70;;;;;;;-148.88;96.06;75976.28;4995061;28;20026;-76
2023/05/05 02:22:57;;;;;;;13.05;8.00;;;;;;;-148.88;96.14;75992.53;5013139;28;20022;-75
2023/05/05 02:25:28;;;;;;;10.48;7.32;;;;;;;-148.88;95.55;75988.47;5013237;28;20018;-75
2023/05/05 02:27:55;;;;;;;9.88;7.30;;;;;;;-148.88;95.05;75996.59;5013169;28;20018;-75
2023/05/05 02:30:21;;;;;;;10.48;7.38;;;;;;;-148.88;95.14;75998.63;5013074;28;20026;-75
2023/05/05 02:32:55;;;;;;;9.00;7.15;;;;;;;-148.88;95.07;75986.44;5013159;28;20044;-75
2023/05/05 02:35:25;;;;;;;10.75;7.15;;;;;;;-148.88;95.21;76002.69;5012962;28;20026;-75
2023/05/05 02:37:58;;;;;;;10.40;7.65;;;;;;;-148.88;95.17;76000.66;4995439;28;20030;-75
2023/05/05 02:40:26;;;;;;;11.32;7.63;;;;;;;-148.88;95.76;76008.78;5013043;28;20028;-76
2023/05/05 02:42:53;;;;;;;9.20;7.63;;;;;;;-148.88;95.58;76012.84;4995323;28;20038;-75
2023/05/05 02:45:21;;;;;;;11.02;7.40;;;;;;;-148.88;95.09;76012.84;5012857;28;20531;-75
2023/05/05 02:47:46;;;;;;;10.63;7.88;;;;;;;-148.88;94.92;76023.00;5022203;22;20042;-75
2023/05/05 02:50:14;;;;;;;7.97;5.10;;;;;;;-148.88;94.70;76012.84;5011603;28;20538;-75
2023/05/05 02:52:40;;;;;;;10.63;7.53;;;;;;;-148.88;94.66;76014.88;5012798;28;20022;-75
2023/05/05 02:55:06;;;;;;;11.27;7.10;;;;;;;-148.88;94.89;76029.09;5012745;28;20026;-76
2023/05/05 02:57:36;;;;;;;9.70;6.97;;;;;;;-148.88;94.84;76014.88;4995380;28;20025;-75
2023/05/05 03:00:09;;;;;;;11.38;7.55;;;;;;;-148.88;94.64;76023.00;5012780;28;20136;-75
2023/05/05 03:02:52;;;;;;;10.33;7.67;;;;;;;-148.88;94.75;76016.91;5013096;28;20022;-75
2023/05/05 03:05:21;;;;;;;8.97;7.20;;;;;;;-148.88;95.07;76027.06;5012662;28;20392;-75
2023/05/05 03:08:09;;;;;;;13.07;7.20;;;;;;;-148.88;94.33;76004.72;5012679;28;20338;-75
2023/05/05 03:10:42;;;;;;;12.80;7.70;;;;;;;-148.88;94.17;76004.72;5012696;28;20080;-75
2023/05/05 03:13:10;;;;;;;8.98;5.13;;;;;;;-148.88;94.21;76000.66;5012753;28;20026;-75
2023/05/05 03:15:42;;;;;;;11.70;8.10;;;;;;;-148.88;94.79;76002.69;5012413;28;20026;-75
2023/05/05 03:18:11;;;;;;;8.15;5.43;;;;;;;-148.88;94.41;76012.84;5012941;28;20072;-76
2023/05/05 03:20:38;;;;;;;10.93;7.30;;;;;;;-148.88;94.73;75998.63;5012582;28;20017;-75
2023/05/05 03:23:04;;;;;;;11.48;7.50;;;;;;;-148.88;94.27;76012.84;5012527;28;20029;-75
2023/05/05 03:25:46;;;;;;;11.27;7.25;;;;;;;-148.88;94.79;76018.94;5012482;28;20022;-75
2023/05/05 03:28:13;;;;;;;11.57;7.55;;;;;;;-148.88;94.06;76020.97;5012491;28;20030;-75
2023/05/05 03:30:39;;;;;;;11.48;7.07;;;;;;;-148.88;93.36;76006.75;5012719;28;20503;-76
2023/05/05 03:33:04;;;;;;;9.57;7.40;;;;;;;-148.88;92.72;75996.59;5013673;28;20113;-75
2023/05/05 03:35:29;;;;;;;8.65;6.63;;;;;;;-148.88;93.02;76004.72;5015854;28;20052;-75
2023/05/05 03:37:55;;;;;;;9.63;7.30;;;;;;;-148.88;92.55;75998.63;5015856;28;20026;-75
2023/05/05 03:40:21;;;;;;;15.25;7.25;;;;;;;-148.88;92.56;76000.66;5015888;28;20021;-75
2023/05/05 03:42:47;;;;;;;10.02;6.70;;;;;;;-148.88;92.94;76008.78;5015806;28;20046;-75
2023/05/05 03:45:12;;;;;;;11.68;7.47;;;;;;;-148.88;93.10;76000.66;5015973;28;20435;-75
2023/05/05 03:47:37;;;;;;;10.48;6.97;;;;;;;-148.88;92.94;76006.75;5015616;28;20021;-77
2023/05/05 03:50:03;;;;;;;11.00;7.43;;;;;;;-148.88;92.87;76002.69;4998379;28;20057;-76
2023/05/05 03:52:28;;;;;;;12.15;7.40;;;;;;;-148.88;93.85;75998.63;5015564;28;20025;-75
2023/05/05 03:54:53;;;;;;;9.82;6.78;;;;;;;-148.88;93.36;75996.59;5015469;28;20032;-76
2023/05/05 03:57:18;;;;;;;11.70;6.68;;;;;;;-148.88;92.95;75988.47;5015500;28;20096;-76
2023/05/05 03:59:44;;;;;;;11.18;7.03;;;;;;;-148.88;92.34;75988.47;5015475;28;20026;-76
2023/05/05 04:02:11;;;;;;;9.85;6.65;;;;;;;-148.88;92.31;75980.34;5015480;28;20029;-76
2023/05/05 04:04:37;;;;;;;9.00;6.75;;;;;;;-148.88;91.53;75984.41;5015604;28;20488;-76
2023/05/05 04:07:02;;;;;;;9.55;6.70;;;;;;;-148.88;91.46;75980.34;5015412;28;20029;-76
2023/05/05 04:09:27;;;;;;;8.52;6.47;;;;;;;-148.88;91.87;75974.25;5015514;28;20026;-76
2023/05/05 04:11:52;;;;;;;8.38;6.47;;;;;;;-148.88;91.51;75966.13;5015578;28;20038;-76
2023/05/05 04:14:18;;;;;;;9.77;7.03;;;;;;;-148.88;91.90;75984.41;5015667;28;20476;-76
2023/05/05 04:16:43;;;;;;;8.50;6.85;;;;;;;-148.88;92.15;75976.28;4997581;28;20026;-76
2023/05/05 04:19:08;;;;;;;10.88;6.95;;;;;;;-148.88;92.04;75980.34;5015106;28;20508;-75
2023/05/05 04:21:34;;;;;;;9.35;6.60;;;;;;;-148.88;91.64;75986.44;5015077;28;20076;-76
2023/05/05 04:23:59;;;;;;;9.48;6.65;;;;;;;-148.88;91.81;75992.53;5015068;28;20041;-76
2023/05/05 04:26:26;;;;;;;10.27;6.60;;;;;;;-148.88;91.95;76000.66;5014969;28;20388;-75
2023/05/05 04:28:51;;;;;;;9.75;7.00;;;;;;;-148.88;91.94;75996.59;4997370;28;20021;-76
2023/05/05 04:31:16;;;;;;;10.52;6.78;;;;;;;-148.88;91.60;76000.66;5014920;28;20022;-76
2023/05/05 04:33:42;;;;;;;12.18;7.10;;;;;;;-148.88;92.24;76002.69;5014872;28;20436;-76
2023/05/05 04:36:07;;;;;;;10.00;6.75;;;;;;;-148.88;92.07;76012.84;5014727;28;20032;-76
2023/05/05 04:38:32;;;;;;;10.88;6.70;;;;;;;-148.88;92.91;76008.78;5014816;28;20036;-76
2023/05/05 04:40:58;;;;;;;9.27;6.72;;;;;;;-148.88;92.80;76008.78;5014734;28;20022;-76
2023/05/05 04:43:24;;;;;;;9.57;6.85;;;;;;;-148.88;92.67;76000.66;5014685;28;20113;-76
2023/05/05 04:45:53;;;;;;;9.32;6.45;;;;;;;-148.88;92.80;75996.59;5014634;28;20489;-76
2023/05/05 04:48:19;;;;;;;10.30;7.43;;;;;;;-148.88;92.29;75992.53;4997028;28;20025;-75
2023/05/05 04:50:45;;;;;;;8.13;6.68;;;;;;;-148.88;92.66;75988.47;4997000;28;20018;-75
2023/05/05 04:53:10;;;;;;;11.55;6.30;;;;;;;-148.88;92.21;75984.41;4996928;28;20048;-76
2023/05/05 04:55:36;;;;;;;13.75;4.90;;;;;;;-148.88;92.10;75982.38;5014404;28;20060;-76
2023/05/05 04:58:01;;;;;;;8.57;4.85;;;;;;;-148.88;92.21;75968.16;5014444;28;20022;-75
2023/05/05 05:00:26;;;;;;;10.30;7.07;;;;;;;-148.88;92.87;75968.16;5014346;28;20033;-76
2023/05/05 05:02:52;;;;;;;9.93;6.70;;;;;;;-148.88;92.98;75962.06;5014355;28;20072;-76
2023/05/05 05:05:17;;;;;;;9.45;6.90;;;;;;;-148.88;92.95;75951.91;5014342;28;20471;-76
2023/05/05 05:07:43;;;;;;;10.43;6.65;;;;;;;-148.88;93.66;75964.09;5014229;28;20084;-75
2023/05/05 05:10:08;;;;;;;12.23;6.97;;;;;;;-148.88;93.00;75962.06;5014218;28;20492;-76
2023/05/05 05:12:34;;;;;;;10.43;7.05;;;;;;;-148.88;91.88;75960.03;5014263;28;20051;-76
2023/05/05 05:14:59;;;;;;;9.10;6.55;;;;;;;-148.88;91.88;75937.69;5013866;28;20021;-76
2023/05/05 05:17:25;;;;;;;10.30;6.07;;;;;;;-148.88;91.12;75919.41;5014059;28;20028;-76
2023/05/05 05:19:51;;;;;;;10.43;7.20;;;;;;;-148.88;92.02;75899.09;5014066;28;20022;-75
2023/05/05 05:22:16;;;;;;;7.78;5.78;;;;;;;-148.88;92.17;75903.16;4996391;28;20124;-76
2023/05/05 05:24:41;;;;;;;11.48;6.82;;;;;;;-148.88;93.18;75901.13;5014434;28;20105;-76
2023/05/05 05:27:08;;;;;;;10.43;6.68;;;;;;;-148.88;94.09;75899.09;5013995;28;20362;-76
2023/05/05 05:29:33;;;;;;;10.65;7.22;;;;;;;-148.88;93.08;75884.88;5014107;28;20033;-75
2023/05/05 05:31:59;;;;;;;9.18;6.15;;;;;;;-148.88;89.74;75866.59;5013905;28;20044;-76
2023/05/05 05:34:24;;;;;;;11.30;6.38;;;;;;;-148.88;88.42;75846.28;4996140;28;20088;-76
2023/05/05 05:36:50;;;;;;;9.75;5.25;;;;;;;-148.88;86.23;75821.91;5013662;28;20022;-75
2023/05/05 05:39:15;;;;;;;12.35;6.40;;;;;;;-148.88;86.19;75809.72;5014037;28;20033;-76
2023/05/05 05:41:40;;;;;;;9.35;5.80;;;;;;;-148.88;85.27;75797.53;5013653;28;20489;-76
2023/05/05 05:44:05;;;;;;;10.02;5.50;;;;;;;-148.88;85.63;75785.34;4996020;28;20026;-76
2023/05/05 05:46:31;;;;;;;12.32;6.03;;;;;;;-148.88;87.23;75779.25;5013574;28;20040;-75
2023/05/05 05:48:56;;;;;;;8.55;6.03;;;;;;;-148.88;88.36;75781.28;5013362;28;20038;-75
2023/05/05 05:51:21;;;;;;;12.73;6.40;;;;;;;-148.88;88.48;75781.28;5013507;28;20108;-76
2023/05/05 05:53:47;;;;;;;9.57;5.80;;;;;;;-148.88;90.03;75779.25;5013473;28;20175;-76
2023/05/05 05:56:12;;;;;;;9.20;6.60;;;;;;;-148.88;90.27;75785.34;5012542;28;20026;-76
2023/05/05 05:58:37;;;;;;;9.55;5.88;;;;;;;-148.88;92.90;75773.16;5013512;28;20024;-76
2023/05/05 06:01:03;;;;;;;9.40;7.20;;;;;;;-148.88;98.09;75781.28;5013594;28;20050;-75
2023/05/05 06:03:29;;;;;;;15.85;9.10;;;;;;;-148.88;100.00;75834.09;5013519;28;20037;-76
2023/05/05 06:05:54;;;;;;;15.57;8.10;;;;;;;-148.88;100.00;75834.09;5013367;28;20018;-77
2023/05/05 06:08:20;;;;;;;13.43;8.85;;;;;;;-148.88;100.00;75866.59;5013340;28;20025;-76
2023/05/05 06:10:47;;;;;;;12.63;8.57;;;;;;;-148.88;100.00;75884.88;5013314;28;20095;-76
2023/05/05 06:13:12;;;;;;;13.70;8.55;;;;;;;-148.88;100.00;75874.72;5013335;28;20029;-76
2023/05/05 06:15:37;;;;;;;12.43;8.90;;;;;;;-148.88;100.00;75882.84;4995485;28;20374;-76
2023/05/05 06:18:03;;;;;;;14.23;9.27;;;;;;;-148.88;100.00;75870.66;5013242;28;20117;-76
2023/05/05 06:20:28;;;;;;;12.27;9.23;;;;;;;-148.88;100.00;75852.38;5013211;28;20038;-76
2023/05/05 06:22:53;;;;;;;13.15;9.65;;;;;;;-148.88;100.00;75844.25;5013155;28;20477;-76
2023/05/05 06:25:19;;;;;;;13.90;9.35;;;;;;;-148.88;100.00;75844.25;5013100;28;20018;-76
2023/05/05 06:27:44;;;;;;;11.75;9.30;;;;;;;-148.88;100.00;75838.16;5013405;28;20025;-76
2023/05/05 06:30:10;;;;;;;13.15;8.75;;;;;;;-148.88;100.00;75838.16;5013049;28;20025;-76
2023/05/05 06:32:36;;;;;;;13.07;9.45;;;;;;;-148.88;100.00;75856.44;4995554;28;20025;-76
2023/05/05 06:35:01;;;;;;;11.75;9.45;;;;;;;-148.88;100.00;75874.72;5012996;28;20026;-76
2023/05/05 06:37:26;;;;;;;14.90;10.02;;;;;;;-148.88;100.00;75874.72;5013260;28;20033;-76
2023/05/05 06:39:51;;;;;;;19.60;10.98;;;;;;;-148.88;100.00;75868.63;5013218;28;20021;-76
2023/05/05 06:42:17;;;;;;;26.58;13.07;;;;;;;-148.88;100.00;75868.63;4995406;28;20018;-76
2023/05/05 06:44:42;;;;;;;18.27;11.85;;;;;;;-148.88;100.00;75886.91;5012987;28;20041;-76
2023/05/05 06:47:07;;;;;;;17.13;11.95;;;;;;;-148.88;100.00;75901.13;5013438;28;20014;-77
2023/05/05 06:49:33;;;;;;;16.98;11.70;;;;;;;-148.88;100.00;75897.06;5012835;28;20029;-76
2023/05/05 06:51:58;;;;;;;18.90;13.02;;;;;;;-148.88;100.00;75907.22;4995304;28;20485;-76
2023/05/05 06:54:23;;;;;;;18.98;12.95;;;;;;;-148.88;100.00;75917.38;5012839;28;20029;-76
2023/05/05 06:56:48;;;;;;;20.00;13.35;;;;;;;-148.88;100.00;75915.34;5012699;28;20112;-76
2023/05/05 06:59:14;;;;;;;17.33;13.18;;;;;;;-148.88;100.00;75911.28;5012797;28;20033;-77
2023/05/05 07:01:39;;;;;;;19.52;13.98;;;;;;;-148.88;100.00;75915.34;4995166;28;20026;-76
2023/05/05 07:04:05;;;;;;;16.40;13.20;;;;;;;-148.88;100.00;75903.16;5012705;28;20044;-76
2023/05/05 07:06:31;;;;;;;19.67;13.25;;;;;;;-148.88;100.00;75897.06;4995271;28;20014;-76
2023/05/05 07:08:56;;;;;;;17.70;13.00;;;;;;;-148.88;100.00;75895.03;5016425;28;20034;-76
2023/05/05 07:11:22;;;;;;;19.88;13.52;;;;;;;-148.88;100.00;75878.78;4998843;28;20064;-76
2023/05/05 07:13:48;;;;;;;20.40;13.35;;;;;;;-148.88;100.00;75870.66;5016457;28;20417;-76
2023/05/05 07:16:13;;;;;;;17.42;12.68;;;;;;;-148.88;100.00;75872.69;5016696;28;20022;-76
2023/05/05 07:18:38;;;;;;;17.65;12.10;;;;;;;-148.88;100.00;75862.53;5016349;28;20032;-77
2023/05/05 07:21:05;;;;;;;17.35;12.57;;;;;;;-148.88;100.00;75864.56;4998683;28;20025;-76
2023/05/05 07:23:31;;;;;;;16.77;12.43;;;;;;;-148.88;100.00;75862.53;4998632;28;20033;-76
2023/05/05 07:25:56;;;;;;;16.80;12.50;;;;;;;-148.88;100.00;75846.28;5016156;28;20018;-76
2023/05/05 07:28:21;;;;;;;16.95;12.73;;;;;;;-148.88;100.00;75838.16;5016102;28;20018;-77
2023/05/05 07:30:47;;;;;;;16.90;12.70;;;;;;;-148.88;100.00;75821.91;4998823;28;20049;-76
2023/05/05 07:33:13;;;;;;;15.77;12.68;;;;;;;-148.88;100.00;75815.81;5016004;28;20484;-76
2023/05/05 07:35:38;;;;;;;15.60;12.02;;;;;;;-148.88;100.00;75809.72;4998282;28;20026;-76
2023/05/05 07:38:04;;;;;;;17.88;13.40;;;;;;;-148.88;100.00;75791.44;5015844;28;20043;-76
2023/05/05 07:40:29;;;;;;;19.98;13.32;;;;;;;-148.88;100.00;75807.69;5015915;28;20049;-76
2023/05/05 07:42:57;;;;;;;15.45;13.05;;;;;;;-148.88;100.00;75801.59;5015829;28;20026;-76
2023/05/05 07:45:22;;;;;;;20.50;13.05;;;;;;;-148.88;100.00;75797.53;4998103;28;20473;-76
2023/05/05 07:47:47;;;;;;;16.63;12.18;;;;;;;-148.88;100.00;75789.41;5015907;28;20030;-77
2023/05/05 07:50:13;;;;;;;15.65;12.27;;;;;;;-148.88;100.00;75785.34;5015965;28;20117;-76
2023/05/05 07:52:38;;;;;;;18.95;12.82;;;;;;;-148.88;100.00;75767.06;5016195;28;20034;-76
2023/05/05 07:55:03;;;;;;;16.90;12.57;;;;;;;-148.88;100.00;75769.09;5016072;28;20093;-76
2023/05/05 07:57:29;;;;;;;17.35;12.52;;;;;;;-148.88;100.00;75750.81;5015586;28;20476;-76
2023/05/05 07:59:54;;;;;;;15.38;12.25;;;;;;;-148.88;100.00;75728.47;4997954;28;20470;-76
2023/05/05 08:02:20;;;;;;;19.23;12.70;;;;;;;-148.88;100.00;75716.28;4998179;28;20037;-76
2023/05/05 08:04:45;;;;;;;18.25;13.60;;;;;;;-148.88;100.00;75712.22;5015347;28;20396;-76
2023/05/05 08:07:10;;;;;;;16.38;13.13;;;;;;;-148.88;100.00;75698.00;5015417;28;20065;-76
2023/05/05 08:09:36;;;;;;;17.60;13.38;;;;;;;-148.88;100.00;75695.97;4997836;28;20056;-76
2023/05/05 08:12:02;;;;;;;16.23;13.02;;;;;;;-148.88;100.00;75704.09;5015323;28;20075;-76
2023/05/05 08:14:28;;;;;;;20.83;13.60;;;;;;;-148.88;100.00;75704.09;5015169;28;20112;-76
2023/05/05 08:16:54;;;;;;;20.92;13.43;;;;;;;-148.88;100.00;75695.97;5015145;28;20038;-76
2023/05/05 08:19:19;;;;;;;15.55;13.10;;;;;;;-148.88;100.00;75679.72;4996855;28;20507;-76
2023/05/05 08:21:44;;;;;;;21.05;13.65;;;;;;;-148.88;100.00;75675.66;5015101;28;20040;-76
2023/05/05 08:24:10;;;;;;;17.30;13.65;;;;;;;-148.88;100.00;75673.63;4997494;28;20496;-76
2023/05/05 08:26:35;;;;;;;17.60;13.73;;;;;;;-148.88;100.00;75659.41;5015417;28;20420;-76
2023/05/05 08:29:00;;;;;;;20.35;14.35;;;;;;;-148.88;100.00;75649.25;5015319;28;20029;-76
2023/05/05 08:31:27;;;;;;;18.15;14.05;;;;;;;-148.88;100.00;75630.97;4997454;28;20021;-76
2023/05/05 08:33:53;;;;;;;17.67;12.90;;;;;;;-148.88;100.00;75641.13;5015209;28;20412;-76
2023/05/05 08:36:18;;;;;;;19.50;13.45;;;;;;;-148.88;100.00;75628.94;4997197;28;20022;-76
2023/05/05 08:38:43;;;;;;;18.42;14.07;;;;;;;-148.88;100.00;75618.78;5014767;28;20046;-76
2023/05/05 08:41:12;;;;;;;18.55;13.27;;;;;;;-148.88;100.00;75622.84;5014795;28;20073;-76
2023/05/05 08:43:38;;;;;;;15.57;13.45;;;;;;;-148.88;100.00;75588.34;4997126;28;20021;-76
2023/05/05 08:46:04;;;;;;;20.70;14.10;;;;;;;-148.88;100.00;75578.19;5014589;28;20036;-76
2023/05/05 08:48:32;;;;;;;16.00;12.70;;;;;;;-148.88;100.00;75570.03;5014415;28;20204;-76
2023/05/05 08:50:59;;;;;;;18.58;14.07;;;;;;;-148.88;100.00;75555.84;5014607;28;20032;-76
2023/05/05 08:53:54;;;;;;;19.65;13.95;;;;;;;-148.88;100.00;75555.84;5014560;28;20148;-76
2023/05/05 08:56:23;;;;;;;18.95;14.30;;;;;;;-148.88;100.00;75547.72;4987809;28;20044;-76
2023/05/05 08:58:50;;;;;;;17.45;14.85;;;;;;;-148.88;100.00;75525.38;5014649;28;20109;-76
2023/05/05 09:01:16;;;;;;;18.50;14.70;;;;;;;-148.88;100.00;75513.19;5014378;28;20058;-76
2023/05/05 09:03:43;;;;;;;20.63;15.77;;;;;;;-148.88;100.00;75517.25;5014661;28;20021;-76
2023/05/05 09:06:08;;;;;;;16.75;14.10;;;;;;;-148.88;100.00;75513.19;5014445;28;20097;-76
2023/05/05 09:08:36;;;;;;;19.65;15.45;;;;;;;-148.88;100.00;75472.56;5014329;28;20117;-76
2023/05/05 09:11:01;;;;;;;17.80;14.60;;;;;;;-148.88;100.00;75494.91;5014291;28;20026;-76
2023/05/05 09:13:28;;;;;;;18.42;15.70;;;;;;;-148.88;100.00;75484.75;5014191;28;20028;-76
2023/05/05 09:15:53;;;;;;;16.25;14.07;;;;;;;-148.88;100.00;75476.63;5013976;28;20026;-76
2023/05/05 09:18:19;;;;;;;19.52;15.05;;;;;;;-148.88;100.00;75456.31;5014115;28;20040;-76
2023/05/05 09:20:44;;;;;;;22.10;13.70;;;;;;;-148.88;100.00;75458.34;5014084;28;20026;-76
2023/05/05 09:23:15;;;;;;;17.83;13.88;;;;;;;-148.88;100.00;75405.53;5014037;28;20022;-76
2023/05/05 09:25:44;;;;;;;18.60;14.15;;;;;;;-148.88;100.00;75395.38;5014163;28;20380;-76
2023/05/05 09:28:14;;;;;;;18.63;14.63;;;;;;;-148.88;100.00;75399.44;4996254;28;20440;-76
2023/05/05 09:30:42;;;;;;;20.45;14.52;;;;;;;-148.88;100.00;75383.19;5014098;28;20204;-76
2023/05/05 09:33:07;;;;;;;19.08;14.38;;;;;;;-148.88;100.00;75383.19;5013825;28;20096;-76
2023/05/05 09:36:04;;;;;;;18.65;14.00;;;;;;;-148.88;99.67;75366.94;5013834;28;20473;-76
2023/05/05 09:38:29;;;;;;;18.80;14.45;;;;;;;-148.88;100.00;75373.03;4998181;28;20088;-76
2023/05/05 09:40:54;;;;;;;19.45;14.48;;;;;;;-148.88;98.97;75375.06;4996211;28;20074;-76
2023/05/05 09:43:22;;;;;;;17.55;14.35;;;;;;;-148.88;99.54;75350.69;5013928;28;20018;-76
2023/05/05 09:45:48;;;;;;;21.98;15.73;;;;;;;-148.88;100.00;75330.38;4995999;28;20018;-76
2023/05/05 09:48:30;;;;;;;17.05;14.48;;;;;;;-148.88;100.00;75306.00;5013579;28;20034;-76
2023/05/05 09:50:57;;;;;;;20.73;16.10;;;;;;;-148.88;100.00;75267.44;5013624;28;20049;-76
2023/05/05 09:53:24;;;;;;;19.88;15.57;;;;;;;-148.88;100.00;75234.94;5013642;28;20026;-76
2023/05/05 09:55:57;;;;;;;17.63;14.93;;;;;;;-148.88;97.63;75194.31;5013314;28;20032;-76
2023/05/05 09:58:27;;;;;;;18.13;14.85;;;;;;;-148.88;94.55;75245.09;5013542;28;20022;-76
2023/05/05 10:00:54;;;;;;;18.55;14.23;;;;;;;-148.88;95.74;75192.28;4995772;28;20022;-76
2023/05/05 10:03:19;;;;;;;17.83;14.85;;;;;;;-148.88;96.50;75163.84;5013375;28;20543;-76
2023/05/05 10:05:56;;;;;;;16.80;14.38;;;;;;;-148.88;94.14;75111.03;5013412;28;20030;-76
2023/05/05 10:08:24;;;;;;;21.10;16.40;;;;;;;-148.88;99.45;75078.56;5013276;28;20076;-76
2023/05/05 10:10:58;;;;;;;18.20;14.90;;;;;;;-148.88;97.11;75076.53;5013339;28;20068;-76
2023/05/05 10:13:24;;;;;;;22.48;15.82;;;;;;;-148.88;95.74;75143.53;4995748;28;20026;-76
2023/05/05 10:15:51;;;;;;;19.42;16.55;;;;;;;-148.88;98.87;75135.41;5013261;28;20481;-76
2023/05/05 10:18:22;;;;;;;18.90;15.32;;;;;;;-148.88;94.36;75106.97;4995692;28;20021;-76
2023/05/05 10:20:54;;;;;;;22.00;15.35;;;;;;;-148.88;93.87;75070.44;5013648;28;20032;-76
2023/05/05 10:23:22;;;;;;;19.58;15.77;;;;;;;-148.88;92.60;75082.63;5013233;28;20510;-76
2023/05/05 10:25:59;;;;;;;19.98;15.57;;;;;;;-148.88;90.81;75039.97;4995469;28;20029;-76
2023/05/05 10:28:30;;;;;;;20.08;16.83;;;;;;;-148.88;93.77;75046.06;5013422;28;20044;-76
2023/05/05 10:30:59;;;;;;;19.77;16.35;;;;;;;-148.88;94.55;75042.00;5013131;28;20018;-76
2023/05/05 10:33:38;;;;;;;19.25;16.63;;;;;;;-148.88;94.32;75015.59;5013031;28;20113;-76
2023/05/05 10:36:05;;;;;;;17.40;15.57;;;;;;;-148.88;92.31;74985.13;5012928;28;20097;-76
2023/05/05 10:38:31;;;;;;;22.10;16.88;;;;;;;-148.88;93.91;74968.88;4995381;28;20110;-76
2023/05/05 10:40:58;;;;;;;20.45;15.88;;;;;;;-148.88;92.41;74958.72;5013056;28;20104;-76
2023/05/05 10:43:24;;;;;;;18.90;16.00;;;;;;;-148.88;89.30;74924.22;5016335;28;20089;-76
2023/05/05 10:45:50;;;;;;;19.20;16.98;;;;;;;-148.88;90.69;74879.53;5016856;28;20455;-76
2023/05/05 10:48:26;;;;;;;21.10;16.58;;;;;;;-148.88;88.31;74873.44;4999379;28;20034;-76
2023/05/05 10:50:58;;;;;;;19.65;16.38;;;;;;;-148.88;87.10;74822.66;5017147;28;20034;-76
2023/05/05 10:53:35;;;;;;;23.45;16.85;;;;;;;-148.88;90.43;74814.53;4999174;28;20527;-76
2023/05/05 10:56:15;;;;;;;20.25;17.20;;;;;;;-148.88;86.61;74875.47;4999376;28;20036;-76
2023/05/05 10:58:41;;;;;;;22.25;16.10;;;;;;;-148.88;87.49;74755.66;5016822;28;20505;-76
2023/05/05 11:01:08;;;;;;;20.17;16.77;;;;;;;-148.88;84.02;74737.38;4999162;28;20033;-76
2023/05/05 11:03:33;;;;;;;21.08;15.93;;;;;;;-148.88;84.12;74725.19;5016641;28;20511;-76
2023/05/05 11:08:31;;;;;;;20.33;16.83;;;;;;;-148.88;84.46;74664.28;5016591;28;20048;-76
2023/05/05 11:10:57;;;;;;;20.42;15.90;;;;;;;-148.88;81.70;74682.56;5016438;28;20021;-76